sensor_id;sensor_type;location;lat;lon;timestamp;temperature;humidity
7894;DHT22;51343;51.396;6.656;2023-05-14T00:00:45;11.70;99.90
7894;DHT22;51343;51.396;6.656;2023-05-14T00:03:12;11.70;99.90
7894;DHT22;51343;51.396;6.656;2023-05-14T00:05:39;11.60;99.90
7894;DHT22;51343;51.396;6.656;2023-05-14T00:08:05;11.60;99.90
7894;DHT22;51343;51.396;6.656;2023-05-14T00:10:32;11.60;99.90
7894;DHT22;51343;51.396;6.656;2023-05-14T00:12:59;11.60;99.90
7894;DHT22;51343;51.396;6.656;2023-05-14T00:15:25;11.50;99.90
7894;DHT22;51343;51.396;6.656;2023-05-14T00:17:53;11.50;99.90
7894;DHT22;51343;51.396;6.656;2023-05-14T00:20:20;11.40;99.90
7894;DHT22;51343;51.396;6.656;2023-05-14T00:22:47;11.40;99.90
7894;DHT22;51343;51.396;6.656;2023-05-14T00:25:13;11.40;99.90
7894;DHT22;51343;51.396;6.656;2023-05-14T00:27:40;11.40;99.90
7894;DHT22;51343;51.396;6.656;2023-05-14T00:30:07;11.40;99.90
7894;DHT22;51343;51.396;6.656;2023-05-14T00:32:33;11.30;99.90
7894;DHT22;51343;51.396;6.656;2023-05-14T00:35:01;11.30;99.90
7894;DHT22;51343;51.396;6.656;2023-05-14T00:37:28;11.30;99.90
7894;DHT22;51343;51.396;6.656;2023-05-14T00:39:55;11.20;99.90
7894;DHT22;51343;51.396;6.656;2023-05-14T00:42:22;11.20;99.90
7894;DHT22;51343;51.396;6.656;2023-05-14T00:44:48;11.10;99.90
7894;DHT22;51343;51.396;6.656;2023-05-14T00:47:15;11.10;99.90
7894;DHT22;51343;51.396;6.656;2023-05-14T00:49:43;11.00;99.90
7894;DHT22;51343;51.396;6.656;2023-05-14T00:52:12;11.00;99.90
7894;DHT22;51343;51.396;6.656;2023-05-14T00:54:39;11.10;99.90
7894;DHT22;51343;51.396;6.656;2023-05-14T00:57:05;11.10;99.90
7894;DHT22;51343;51.396;6.656;2023-05-14T00:59:32;11.10;99.90
7894;DHT22;51343;51.396;6.656;2023-05-14T01:02:00;11.10;99.90
7894;DHT22;51343;51.396;6.656;2023-05-14T01:04:27;11.10;99.90
7894;DHT22;51343;51.396;6.656;2023-05-14T01:06:56;11.10;99.90
7894;DHT22;51343;51.396;6.656;2023-05-14T01:09:27;11.00;99.90
7894;DHT22;51343;51.396;6.656;2023-05-14T01:11:56;11.00;99.90
7894;DHT22;51343;51.396;6.656;2023-05-14T01:14:27;11.00;99.90
7894;DHT22;51343;51.396;6.656;2023-05-14T01:16:58;11.00;99.90
7894;DHT22;51343;51.396;6.656;2023-05-14T01:19:28;10.90;99.90
7894;DHT22;51343;51.396;6.656;2023-05-14T01:22:00;10.80;99.90
7894;DHT22;51343;51.396;6.656;2023-05-14T01:24:26;10.70;99.90
7894;DHT22;51343;51.396;6.656;2023-05-14T01:26:53;10.80;99.90
7894;DHT22;51343;51.396;6.656;2023-05-14T01:29:22;10.70;99.90
7894;DHT22;51343;51.396;6.656;2023-05-14T01:31:50;10.60;99.90
7894;DHT22;51343;51.396;6.656;2023-05-14T01:34:20;10.50;99.90
7894;DHT22;51343;51.396;6.656;2023-05-14T01:36:48;10.50;99.90
7894;DHT22;51343;51.396;6.656;2023-05-14T01:39:17;10.40;99.90
7894;DHT22;51343;51.396;6.656;2023-05-14T01:41:44;10.40;99.90
7894;DHT22;51343;51.396;6.656;2023-05-14T01:44:11;10.40;99.90
7894;DHT22;51343;51.396;6.656;2023-05-14T01:46:38;10.30;99.90
7894;DHT22;51343;51.396;6.656;2023-05-14T01:49:04;10.30;99.90
7894;DHT22;51343;51.396;6.656;2023-05-14T01:51:31;10.20;99.90
7894;DHT22;51343;51.396;6.656;2023-05-14T01:53:58;10.20;99.90
7894;DHT22;51343;51.396;6.656;2023-05-14T01:56:26;10.20;99.90
7894;DHT22;51343;51.396;6.656;2023-05-14T01:58:52;10.20;99.90
7894;DHT22;51343;51.396;6.656;2023-05-14T02:01:20;10.20;99.90
7894;DHT22;51343;51.396;6.656;2023-05-14T02:03:46;10.10;99.90
7894;DHT22;51343;51.396;6.656;2023-05-14T02:06:13;10.10;99.90
7894;DHT22;51343;51.396;6.656;2023-05-14T02:08:40;10.00;99.90
7894;DHT22;51343;51.396;6.656;2023-05-14T02:11:06;9.90;99.90
7894;DHT22;51343;51.396;6.656;2023-05-14T02:13:34;9.90;99.90
7894;DHT22;51343;51.396;6.656;2023-05-14T02:16:01;9.90;99.90
7894;DHT22;51343;51.396;6.656;2023-05-14T02:18:28;9.90;99.90
7894;DHT22;51343;51.396;6.656;2023-05-14T02:20:54;9.90;99.90
7894;DHT22;51343;51.396;6.656;2023-05-14T02:23:22;9.90;99.90
7894;DHT22;51343;51.396;6.656;2023-05-14T02:25:48;9.80;99.90
7894;DHT22;51343;51.396;6.656;2023-05-14T02:28:15;9.80;99.90
7894;DHT22;51343;51.396;6.656;2023-05-14T02:30:43;9.70;99.90
7894;DHT22;51343;51.396;6.656;2023-05-14T02:33:09;9.70;99.90
7894;DHT22;51343;51.396;6.656;2023-05-14T02:35:37;9.70;99.90
7894;DHT22;51343;51.396;6.656;2023-05-14T02:38:04;9.60;99.90
7894;DHT22;51343;51.396;6.656;2023-05-14T02:40:30;9.60;99.90
7894;DHT22;51343;51.396;6.656;2023-05-14T02:42:57;9.50;99.90
7894;DHT22;51343;51.396;6.656;2023-05-14T02:45:24;9.50;99.90
7894;DHT22;51343;51.396;6.656;2023-05-14T02:47:52;9.50;99.90
7894;DHT22;51343;51.396;6.656;2023-05-14T02:50:19;9.50;99.90
7894;DHT22;51343;51.396;6.656;2023-05-14T02:52:45;9.40;99.90
7894;DHT22;51343;51.396;6.656;2023-05-14T02:55:12;9.40;99.90
7894;DHT22;51343;51.396;6.656;2023-05-14T02:57:38;9.30;99.90
7894;DHT22;51343;51.396;6.656;2023-05-14T03:00:06;9.30;99.90
7894;DHT22;51343;51.396;6.656;2023-05-14T03:02:33;9.30;99.90
7894;DHT22;51343;51.396;6.656;2023-05-14T03:05:01;9.30;99.90
7894;DHT22;51343;51.396;6.656;2023-05-14T03:07:28;9.30;99.90
7894;DHT22;51343;51.396;6.656;2023-05-14T03:09:55;9.40;99.90
7894;DHT22;51343;51.396;6.656;2023-05-14T03:12:21;9.40;99.90
7894;DHT22;51343;51.396;6.656;2023-05-14T03:14:48;9.30;99.90
7894;DHT22;51343;51.396;6.656;2023-05-14T03:17:15;9.40;99.90
7894;DHT22;51343;51.396;6.656;2023-05-14T03:19:41;9.40;99.90
7894;DHT22;51343;51.396;6.656;2023-05-14T03:22:09;9.40;99.90
7894;DHT22;51343;51.396;6.656;2023-05-14T03:24:37;9.40;99.90
7894;DHT22;51343;51.396;6.656;2023-05-14T03:27:04;9.40;99.90
7894;DHT22;51343;51.396;6.656;2023-05-14T03:29:31;9.40;99.90
7894;DHT22;51343;51.396;6.656;2023-05-14T03:31:58;9.30;99.90
7894;DHT22;51343;51.396;6.656;2023-05-14T03:34:24;9.30;99.90
7894;DHT22;51343;51.396;6.656;2023-05-14T03:36:51;9.30;99.90
7894;DHT22;51343;51.396;6.656;2023-05-14T03:39:19;9.30;99.90
7894;DHT22;51343;51.396;6.656;2023-05-14T03:41:46;9.40;99.90
7894;DHT22;51343;51.396;6.656;2023-05-14T03:44:13;9.30;99.90
7894;DHT22;51343;51.396;6.656;2023-05-14T03:46:39;9.20;99.90
7894;DHT22;51343;51.396;6.656;2023-05-14T03:49:06;9.30;99.90
7894;DHT22;51343;51.396;6.656;2023-05-14T03:51:33;9.30;99.90
7894;DHT22;51343;51.396;6.656;2023-05-14T03:54:02;9.20;99.90
7894;DHT22;51343;51.396;6.656;2023-05-14T03:56:30;9.20;99.90
7894;DHT22;51343;51.396;6.656;2023-05-14T03:59:04;9.20;99.90
7894;DHT22;51343;51.396;6.656;2023-05-14T04:01:31;9.20;99.90
7894;DHT22;51343;51.396;6.656;2023-05-14T04:03:57;9.10;99.90
7894;DHT22;51343;51.396;6.656;2023-05-14T04:06:24;9.10;99.90
7894;DHT22;51343;51.396;6.656;2023-05-14T04:08:50;9.20;99.90
7894;DHT22;51343;51.396;6.656;2023-05-14T04:11:18;9.10;99.90
7894;DHT22;51343;51.396;6.656;2023-05-14T04:13:47;9.10;99.90
7894;DHT22;51343;51.396;6.656;2023-05-14T04:16:13;9.10;99.90
7894;DHT22;51343;51.396;6.656;2023-05-14T04:18:40;9.10;99.90
7894;DHT22;51343;51.396;6.656;2023-05-14T04:21:06;9.10;99.90
7894;DHT22;51343;51.396;6.656;2023-05-14T04:23:33;9.10;99.90
7894;DHT22;51343;51.396;6.656;2023-05-14T04:26:00;9.10;99.90
7894;DHT22;51343;51.396;6.656;2023-05-14T04:28:26;9.10;99.90
7894;DHT22;51343;51.396;6.656;2023-05-14T04:30:54;9.10;99.90
7894;DHT22;51343;51.396;6.656;2023-05-14T04:33:21;9.20;99.90
7894;DHT22;51343;51.396;6.656;2023-05-14T04:35:47;9.20;99.90
7894;DHT22;51343;51.396;6.656;2023-05-14T04:38:14;9.20;99.90
7894;DHT22;51343;51.396;6.656;2023-05-14T04:40:41;9.30;99.90
7894;DHT22;51343;51.396;6.656;2023-05-14T04:43:08;9.30;99.90
7894;DHT22;51343;51.396;6.656;2023-05-14T04:45:34;9.30;99.90
7894;DHT22;51343;51.396;6.656;2023-05-14T04:48:03;9.40;99.90
7894;DHT22;51343;51.396;6.656;2023-05-14T04:50:31;9.40;99.90
7894;DHT22;51343;51.396;6.656;2023-05-14T04:52:58;9.50;99.90
7894;DHT22;51343;51.396;6.656;2023-05-14T04:55:25;9.50;99.90
7894;DHT22;51343;51.396;6.656;2023-05-14T04:57:51;9.60;99.90
7894;DHT22;51343;51.396;6.656;2023-05-14T05:00:18;9.60;99.90
7894;DHT22;51343;51.396;6.656;2023-05-14T05:02:45;9.60;99.90
7894;DHT22;51343;51.396;6.656;2023-05-14T05:05:13;9.60;99.90
7894;DHT22;51343;51.396;6.656;2023-05-14T05:07:40;9.60;99.90
7894;DHT22;51343;51.396;6.656;2023-05-14T05:10:07;9.70;99.90
7894;DHT22;51343;51.396;6.656;2023-05-14T05:12:34;9.70;99.90
7894;DHT22;51343;51.396;6.656;2023-05-14T05:15:00;9.80;99.90
7894;DHT22;51343;51.396;6.656;2023-05-14T05:17:28;9.90;99.90
7894;DHT22;51343;51.396;6.656;2023-05-14T05:19:55;10.00;99.90
7894;DHT22;51343;51.396;6.656;2023-05-14T05:22:24;10.10;99.90
7894;DHT22;51343;51.396;6.656;2023-05-14T05:24:50;10.30;99.90
7894;DHT22;51343;51.396;6.656;2023-05-14T05:27:17;10.40;99.90
7894;DHT22;51343;51.396;6.656;2023-05-14T05:29:45;10.60;99.90
7894;DHT22;51343;51.396;6.656;2023-05-14T05:32:11;10.70;99.90
7894;DHT22;51343;51.396;6.656;2023-05-14T05:34:38;10.90;99.90
7894;DHT22;51343;51.396;6.656;2023-05-14T05:37:05;10.90;99.90
7894;DHT22;51343;51.396;6.656;2023-05-14T05:39:34;11.10;99.90
7894;DHT22;51343;51.396;6.656;2023-05-14T05:42:01;11.20;99.90
7894;DHT22;51343;51.396;6.656;2023-05-14T05:44:28;11.30;99.90
7894;DHT22;51343;51.396;6.656;2023-05-14T05:46:56;11.40;99.90
7894;DHT22;51343;51.396;6.656;2023-05-14T05:49:22;11.60;99.90
7894;DHT22;51343;51.396;6.656;2023-05-14T05:51:49;11.60;99.90
7894;DHT22;51343;51.396;6.656;2023-05-14T05:54:16;11.70;18.70
7894;DHT22;51343;51.396;6.656;2023-05-14T05:56:44;11.80;1.00
7894;DHT22;51343;51.396;6.656;2023-05-14T05:59:10;11.90;1.00
7894;DHT22;51343;51.396;6.656;2023-05-14T06:01:37;12.00;1.00
7894;DHT22;51343;51.396;6.656;2023-05-14T06:04:04;12.10;1.00
7894;DHT22;51343;51.396;6.656;2023-05-14T06:06:32;12.20;1.00
7894;DHT22;51343;51.396;6.656;2023-05-14T06:08:59;12.10;1.00
7894;DHT22;51343;51.396;6.656;2023-05-14T06:11:26;12.10;1.00
7894;DHT22;51343;51.396;6.656;2023-05-14T06:13:54;12.10;99.90
7894;DHT22;51343;51.396;6.656;2023-05-14T06:16:21;12.10;99.90
7894;DHT22;51343;51.396;6.656;2023-05-14T06:18:47;12.10;1.00
7894;DHT22;51343;51.396;6.656;2023-05-14T06:21:16;12.20;1.00
7894;DHT22;51343;51.396;6.656;2023-05-14T06:23:43;12.20;99.90
7894;DHT22;51343;51.396;6.656;2023-05-14T06:26:09;12.30;99.90
7894;DHT22;51343;51.396;6.656;2023-05-14T06:28:36;12.30;99.90
7894;DHT22;51343;51.396;6.656;2023-05-14T06:31:04;12.40;99.90
7894;DHT22;51343;51.396;6.656;2023-05-14T06:33:30;12.50;99.90
7894;DHT22;51343;51.396;6.656;2023-05-14T06:35:57;12.60;99.90
7894;DHT22;51343;51.396;6.656;2023-05-14T06:38:24;12.80;99.90
7894;DHT22;51343;51.396;6.656;2023-05-14T06:40:50;12.90;99.90
7894;DHT22;51343;51.396;6.656;2023-05-14T06:43:17;13.10;99.90
7894;DHT22;51343;51.396;6.656;2023-05-14T06:45:47;13.20;99.90
7894;DHT22;51343;51.396;6.656;2023-05-14T06:48:16;13.30;99.90
7894;DHT22;51343;51.396;6.656;2023-05-14T06:50:43;13.40;99.90
7894;DHT22;51343;51.396;6.656;2023-05-14T06:53:12;13.50;99.90
7894;DHT22;51343;51.396;6.656;2023-05-14T06:55:38;13.60;99.90
7894;DHT22;51343;51.396;6.656;2023-05-14T06:58:05;13.80;99.90
7894;DHT22;51343;51.396;6.656;2023-05-14T07:00:32;13.90;99.90
7894;DHT22;51343;51.396;6.656;2023-05-14T07:02:59;14.00;99.90
7894;DHT22;51343;51.396;6.656;2023-05-14T07:05:26;14.00;99.90
7894;DHT22;51343;51.396;6.656;2023-05-14T07:07:53;14.10;99.90
7894;DHT22;51343;51.396;6.656;2023-05-14T07:10:21;14.20;99.90
7894;DHT22;51343;51.396;6.656;2023-05-14T07:12:48;14.20;99.90
7894;DHT22;51343;51.396;6.656;2023-05-14T07:15:14;14.20;99.90
7894;DHT22;51343;51.396;6.656;2023-05-14T07:17:41;14.30;99.90
7894;DHT22;51343;51.396;6.656;2023-05-14T07:20:08;14.50;99.90
7894;DHT22;51343;51.396;6.656;2023-05-14T07:22:36;14.60;99.90
7894;DHT22;51343;51.396;6.656;2023-05-14T07:25:03;14.80;99.90
7894;DHT22;51343;51.396;6.656;2023-05-14T07:27:30;15.00;99.90
7894;DHT22;51343;51.396;6.656;2023-05-14T07:29:57;15.20;99.90
7894;DHT22;51343;51.396;6.656;2023-05-14T07:32:23;15.40;99.90
7894;DHT22;51343;51.396;6.656;2023-05-14T07:34:51;15.60;99.90
7894;DHT22;51343;51.396;6.656;2023-05-14T07:37:18;15.60;99.90
7894;DHT22;51343;51.396;6.656;2023-05-14T07:39:48;15.70;99.90
7894;DHT22;51343;51.396;6.656;2023-05-14T07:42:14;15.70;99.90
7894;DHT22;51343;51.396;6.656;2023-05-14T07:44:41;15.60;99.90
7894;DHT22;51343;51.396;6.656;2023-05-14T07:47:08;15.60;99.90
7894;DHT22;51343;51.396;6.656;2023-05-14T07:49:36;15.50;99.90
7894;DHT22;51343;51.396;6.656;2023-05-14T07:52:02;15.50;99.90
7894;DHT22;51343;51.396;6.656;2023-05-14T07:54:30;15.50;99.90
7894;DHT22;51343;51.396;6.656;2023-05-14T07:56:58;15.50;99.90
7894;DHT22;51343;51.396;6.656;2023-05-14T07:59:24;15.60;99.90
7894;DHT22;51343;51.396;6.656;2023-05-14T08:01:51;15.80;99.90
7894;DHT22;51343;51.396;6.656;2023-05-14T08:04:18;15.90;99.90
7894;DHT22;51343;51.396;6.656;2023-05-14T08:06:44;16.00;99.90
7894;DHT22;51343;51.396;6.656;2023-05-14T08:09:11;16.00;99.90
7894;DHT22;51343;51.396;6.656;2023-05-14T08:11:38;16.00;99.90
7894;DHT22;51343;51.396;6.656;2023-05-14T08:14:06;16.10;99.90
7894;DHT22;51343;51.396;6.656;2023-05-14T08:16:33;16.20;99.90
7894;DHT22;51343;51.396;6.656;2023-05-14T08:19:00;16.20;99.90
7894;DHT22;51343;51.396;6.656;2023-05-14T08:21:27;16.30;99.90
7894;DHT22;51343;51.396;6.656;2023-05-14T08:23:53;16.40;99.90
7894;DHT22;51343;51.396;6.656;2023-05-14T08:26:20;16.50;99.90
7894;DHT22;51343;51.396;6.656;2023-05-14T08:28:47;16.80;99.90
7894;DHT22;51343;51.396;6.656;2023-05-14T08:31:15;17.00;99.90
7894;DHT22;51343;51.396;6.656;2023-05-14T08:33:41;17.10;99.90
7894;DHT22;51343;51.396;6.656;2023-05-14T08:36:08;17.20;99.90
7894;DHT22;51343;51.396;6.656;2023-05-14T08:38:35;17.40;99.90
7894;DHT22;51343;51.396;6.656;2023-05-14T08:41:01;17.70;99.90
7894;DHT22;51343;51.396;6.656;2023-05-14T08:43:33;17.90;99.90
7894;DHT22;51343;51.396;6.656;2023-05-14T08:46:03;17.90;99.90
7894;DHT22;51343;51.396;6.656;2023-05-14T08:48:32;18.10;99.90
7894;DHT22;51343;51.396;6.656;2023-05-14T08:51:00;18.30;99.90
7894;DHT22;51343;51.396;6.656;2023-05-14T08:53:27;18.40;99.90
7894;DHT22;51343;51.396;6.656;2023-05-14T08:55:54;18.60;99.90
7894;DHT22;51343;51.396;6.656;2023-05-14T08:58:20;18.50;99.90
7894;DHT22;51343;51.396;6.656;2023-05-14T09:00:47;18.60;99.90
7894;DHT22;51343;51.396;6.656;2023-05-14T09:03:13;18.60;97.00
7894;DHT22;51343;51.396;6.656;2023-05-14T09:05:42;18.60;99.90
7894;DHT22;51343;51.396;6.656;2023-05-14T09:08:09;18.50;98.30
7894;DHT22;51343;51.396;6.656;2023-05-14T09:10:35;18.60;93.70
7894;DHT22;51343;51.396;6.656;2023-05-14T09:13:02;18.70;77.80
7894;DHT22;51343;51.396;6.656;2023-05-14T09:15:29;18.80;92.80
7894;DHT22;51343;51.396;6.656;2023-05-14T09:17:56;19.00;98.80
7894;DHT22;51343;51.396;6.656;2023-05-14T09:20:23;19.20;99.90
7894;DHT22;51343;51.396;6.656;2023-05-14T09:22:52;19.40;96.70
7894;DHT22;51343;51.396;6.656;2023-05-14T09:25:19;19.40;90.70
7894;DHT22;51343;51.396;6.656;2023-05-14T09:27:51;19.50;92.10
7894;DHT22;51343;51.396;6.656;2023-05-14T09:30:19;19.60;89.00
7894;DHT22;51343;51.396;6.656;2023-05-14T09:32:46;19.70;86.20
7894;DHT22;51343;51.396;6.656;2023-05-14T09:35:15;19.70;51.20
7894;DHT22;51343;51.396;6.656;2023-05-14T09:37:42;19.80;60.90
7894;DHT22;51343;51.396;6.656;2023-05-14T09:40:10;19.90;54.60
7894;DHT22;51343;51.396;6.656;2023-05-14T09:42:37;20.00;55.70
7894;DHT22;51343;51.396;6.656;2023-05-14T09:45:05;20.10;43.60
7894;DHT22;51343;51.396;6.656;2023-05-14T09:47:33;20.30;40.60
7894;DHT22;51343;51.396;6.656;2023-05-14T09:49:59;20.40;37.60
7894;DHT22;51343;51.396;6.656;2023-05-14T09:52:26;20.50;42.90
7894;DHT22;51343;51.396;6.656;2023-05-14T09:54:53;20.80;48.60
7894;DHT22;51343;51.396;6.656;2023-05-14T09:57:21;21.20;49.70
7894;DHT22;51343;51.396;6.656;2023-05-14T09:59:47;21.40;43.10
7894;DHT22;51343;51.396;6.656;2023-05-14T10:02:15;21.60;25.50
7894;DHT22;51343;51.396;6.656;2023-05-14T10:04:46;21.70;14.40
7894;DHT22;51343;51.396;6.656;2023-05-14T10:07:13;21.80;10.60
7894;DHT22;51343;51.396;6.656;2023-05-14T10:09:41;21.70;21.90
7894;DHT22;51343;51.396;6.656;2023-05-14T10:12:09;22.00;20.10
7894;DHT22;51343;51.396;6.656;2023-05-14T10:14:39;22.30;11.70
7894;DHT22;51343;51.396;6.656;2023-05-14T10:17:06;22.50;2.00
7894;DHT22;51343;51.396;6.656;2023-05-14T10:19:42;22.80;1.00
7894;DHT22;51343;51.396;6.656;2023-05-14T10:22:11;23.10;1.00
7894;DHT22;51343;51.396;6.656;2023-05-14T10:24:40;23.50;1.00
7894;DHT22;51343;51.396;6.656;2023-05-14T10:27:08;23.60;1.00
7894;DHT22;51343;51.396;6.656;2023-05-14T10:29:35;23.60;1.00
7894;DHT22;51343;51.396;6.656;2023-05-14T10:32:04;23.90;1.00
7894;DHT22;51343;51.396;6.656;2023-05-14T10:34:32;24.10;1.00
7894;DHT22;51343;51.396;6.656;2023-05-14T10:37:01;24.30;1.00
7894;DHT22;51343;51.396;6.656;2023-05-14T10:39:41;24.20;1.00
7894;DHT22;51343;51.396;6.656;2023-05-14T10:42:09;23.90;1.00
7894;DHT22;51343;51.396;6.656;2023-05-14T10:44:36;23.10;1.00
7894;DHT22;51343;51.396;6.656;2023-05-14T10:47:07;22.70;1.00
7894;DHT22;51343;51.396;6.656;2023-05-14T10:49:34;22.10;1.00
7894;DHT22;51343;51.396;6.656;2023-05-14T10:52:00;21.60;1.00
7894;DHT22;51343;51.396;6.656;2023-05-14T10:54:27;21.40;1.00
7894;DHT22;51343;51.396;6.656;2023-05-14T10:56:57;21.20;1.00
7894;DHT22;51343;51.396;6.656;2023-05-14T10:59:24;20.90;1.00
7894;DHT22;51343;51.396;6.656;2023-05-14T11:01:52;20.80;1.00
7894;DHT22;51343;51.396;6.656;2023-05-14T11:04:20;20.80;1.00
7894;DHT22;51343;51.396;6.656;2023-05-14T11:06:48;20.90;1.00
7894;DHT22;51343;51.396;6.656;2023-05-14T11:09:17;21.30;1.00
7894;DHT22;51343;51.396;6.656;2023-05-14T11:11:46;21.20;1.00
7894;DHT22;51343;51.396;6.656;2023-05-14T11:14:12;21.20;1.00
7894;DHT22;51343;51.396;6.656;2023-05-14T11:16:39;21.30;1.00
7894;DHT22;51343;51.396;6.656;2023-05-14T11:19:06;21.90;1.00
7894;DHT22;51343;51.396;6.656;2023-05-14T11:21:34;23.00;1.00
7894;DHT22;51343;51.396;6.656;2023-05-14T11:24:01;24.00;1.00
7894;DHT22;51343;51.396;6.656;2023-05-14T11:26:30;24.80;1.00
7894;DHT22;51343;51.396;6.656;2023-05-14T11:28:58;24.90;1.00
7894;DHT22;51343;51.396;6.656;2023-05-14T11:31:25;24.40;1.00
7894;DHT22;51343;51.396;6.656;2023-05-14T11:33:52;23.90;1.00
7894;DHT22;51343;51.396;6.656;2023-05-14T11:36:19;23.30;1.00
7894;DHT22;51343;51.396;6.656;2023-05-14T11:38:47;22.90;1.00
7894;DHT22;51343;51.396;6.656;2023-05-14T11:41:16;23.10;1.00
7894;DHT22;51343;51.396;6.656;2023-05-14T11:43:45;23.10;1.00
7894;DHT22;51343;51.396;6.656;2023-05-14T11:46:15;23.20;1.00
7894;DHT22;51343;51.396;6.656;2023-05-14T11:48:43;23.50;1.00
7894;DHT22;51343;51.396;6.656;2023-05-14T11:51:09;23.10;1.00
7894;DHT22;51343;51.396;6.656;2023-05-14T11:53:45;23.00;1.00
7894;DHT22;51343;51.396;6.656;2023-05-14T11:56:21;22.70;1.00
7894;DHT22;51343;51.396;6.656;2023-05-14T11:58:54;22.40;1.00
7894;DHT22;51343;51.396;6.656;2023-05-14T12:01:21;23.10;1.00
7894;DHT22;51343;51.396;6.656;2023-05-14T12:04:00;23.80;1.00
7894;DHT22;51343;51.396;6.656;2023-05-14T12:09:22;24.40;1.00
7894;DHT22;51343;51.396;6.656;2023-05-14T12:11:50;24.90;1.00
7894;DHT22;51343;51.396;6.656;2023-05-14T12:14:25;24.90;1.00
7894;DHT22;51343;51.396;6.656;2023-05-14T12:16:53;25.10;1.00
7894;DHT22;51343;51.396;6.656;2023-05-14T12:19:22;25.40;1.00
7894;DHT22;51343;51.396;6.656;2023-05-14T12:22:05;25.40;1.00
7894;DHT22;51343;51.396;6.656;2023-05-14T12:24:33;25.50;1.00
7894;DHT22;51343;51.396;6.656;2023-05-14T12:27:01;25.80;1.00
7894;DHT22;51343;51.396;6.656;2023-05-14T12:29:28;26.10;1.00
7894;DHT22;51343;51.396;6.656;2023-05-14T12:31:56;26.20;1.00
7894;DHT22;51343;51.396;6.656;2023-05-14T12:34:23;26.10;1.00
7894;DHT22;51343;51.396;6.656;2023-05-14T12:36:49;25.50;1.00
7894;DHT22;51343;51.396;6.656;2023-05-14T12:39:23;25.20;1.00
7894;DHT22;51343;51.396;6.656;2023-05-14T12:41:50;25.20;1.00
7894;DHT22;51343;51.396;6.656;2023-05-14T12:44:18;25.50;1.00
7894;DHT22;51343;51.396;6.656;2023-05-14T12:46:46;25.40;1.00
7894;DHT22;51343;51.396;6.656;2023-05-14T12:49:13;25.20;1.00
7894;DHT22;51343;51.396;6.656;2023-05-14T12:51:40;25.30;1.00
7894;DHT22;51343;51.396;6.656;2023-05-14T12:54:06;25.20;1.00
7894;DHT22;51343;51.396;6.656;2023-05-14T12:56:36;25.40;1.00
7894;DHT22;51343;51.396;6.656;2023-05-14T12:59:03;25.80;1.00
7894;DHT22;51343;51.396;6.656;2023-05-14T13:01:31;25.70;1.00
7894;DHT22;51343;51.396;6.656;2023-05-14T13:03:58;26.10;1.00
7894;DHT22;51343;51.396;6.656;2023-05-14T13:06:24;26.10;1.00
7894;DHT22;51343;51.396;6.656;2023-05-14T13:08:51;26.20;1.00
7894;DHT22;51343;51.396;6.656;2023-05-14T13:11:18;26.40;1.00
7894;DHT22;51343;51.396;6.656;2023-05-14T13:13:45;26.80;1.00
7894;DHT22;51343;51.396;6.656;2023-05-14T13:16:12;27.10;1.00
7894;DHT22;51343;51.396;6.656;2023-05-14T13:18:42;26.90;1.00
7894;DHT22;51343;51.396;6.656;2023-05-14T13:21:09;26.40;1.00
7894;DHT22;51343;51.396;6.656;2023-05-14T13:23:36;26.00;1.00
7894;DHT22;51343;51.396;6.656;2023-05-14T13:26:03;25.70;1.00
7894;DHT22;51343;51.396;6.656;2023-05-14T13:28:30;25.50;1.00
7894;DHT22;51343;51.396;6.656;2023-05-14T13:31:06;25.30;1.00
7894;DHT22;51343;51.396;6.656;2023-05-14T13:33:34;25.90;1.00
7894;DHT22;51343;51.396;6.656;2023-05-14T13:36:02;26.40;1.00
7894;DHT22;51343;51.396;6.656;2023-05-14T13:38:29;26.70;1.00
7894;DHT22;51343;51.396;6.656;2023-05-14T13:40:56;26.60;1.00
7894;DHT22;51343;51.396;6.656;2023-05-14T13:43:27;26.10;1.00
7894;DHT22;51343;51.396;6.656;2023-05-14T13:45:53;25.40;1.00
7894;DHT22;51343;51.396;6.656;2023-05-14T13:48:20;24.90;1.00
7894;DHT22;51343;51.396;6.656;2023-05-14T13:50:47;24.40;1.00
7894;DHT22;51343;51.396;6.656;2023-05-14T13:53:15;24.20;1.00
7894;DHT22;51343;51.396;6.656;2023-05-14T13:55:42;24.30;1.00
7894;DHT22;51343;51.396;6.656;2023-05-14T13:58:08;24.70;1.00
7894;DHT22;51343;51.396;6.656;2023-05-14T14:00:35;25.10;1.00
7894;DHT22;51343;51.396;6.656;2023-05-14T14:03:02;25.40;1.00
7894;DHT22;51343;51.396;6.656;2023-05-14T14:05:28;25.40;1.00
7894;DHT22;51343;51.396;6.656;2023-05-14T14:07:55;25.70;1.00
7894;DHT22;51343;51.396;6.656;2023-05-14T14:10:23;25.70;1.00
7894;DHT22;51343;51.396;6.656;2023-05-14T14:12:50;25.70;1.00
7894;DHT22;51343;51.396;6.656;2023-05-14T14:15:17;25.50;1.00
7894;DHT22;51343;51.396;6.656;2023-05-14T14:17:44;25.40;1.00
7894;DHT22;51343;51.396;6.656;2023-05-14T14:20:10;25.60;1.00
7894;DHT22;51343;51.396;6.656;2023-05-14T14:22:39;25.40;1.00
7894;DHT22;51343;51.396;6.656;2023-05-14T14:25:06;25.40;1.00
7894;DHT22;51343;51.396;6.656;2023-05-14T14:27:35;25.30;1.00
7894;DHT22;51343;51.396;6.656;2023-05-14T14:30:03;25.10;1.00
7894;DHT22;51343;51.396;6.656;2023-05-14T14:32:30;24.90;1.00
7894;DHT22;51343;51.396;6.656;2023-05-14T14:34:57;24.40;1.00
7894;DHT22;51343;51.396;6.656;2023-05-14T14:37:23;24.10;1.00
7894;DHT22;51343;51.396;6.656;2023-05-14T14:39:50;23.70;1.00
7894;DHT22;51343;51.396;6.656;2023-05-14T14:42:17;23.20;1.00
7894;DHT22;51343;51.396;6.656;2023-05-14T14:44:45;22.80;1.00
7894;DHT22;51343;51.396;6.656;2023-05-14T14:47:11;22.50;1.00
7894;DHT22;51343;51.396;6.656;2023-05-14T14:49:38;22.30;1.00
7894;DHT22;51343;51.396;6.656;2023-05-14T14:52:05;22.20;1.00
7894;DHT22;51343;51.396;6.656;2023-05-14T14:54:31;22.00;1.00
7894;DHT22;51343;51.396;6.656;2023-05-14T14:56:58;22.00;1.00
7894;DHT22;51343;51.396;6.656;2023-05-14T14:59:24;22.00;1.00
7894;DHT22;51343;51.396;6.656;2023-05-14T15:01:52;22.00;1.00
7894;DHT22;51343;51.396;6.656;2023-05-14T15:04:19;22.10;1.00
7894;DHT22;51343;51.396;6.656;2023-05-14T15:06:46;22.30;1.00
7894;DHT22;51343;51.396;6.656;2023-05-14T15:09:13;22.50;1.00
7894;DHT22;51343;51.396;6.656;2023-05-14T15:11:39;22.70;1.00
7894;DHT22;51343;51.396;6.656;2023-05-14T15:14:06;22.90;1.00
7894;DHT22;51343;51.396;6.656;2023-05-14T15:16:33;23.10;1.00
7894;DHT22;51343;51.396;6.656;2023-05-14T15:19:01;23.00;1.00
7894;DHT22;51343;51.396;6.656;2023-05-14T15:21:27;23.10;1.00
7894;DHT22;51343;51.396;6.656;2023-05-14T15:23:55;22.90;1.00
7894;DHT22;51343;51.396;6.656;2023-05-14T15:26:21;22.90;1.00
7894;DHT22;51343;51.396;6.656;2023-05-14T15:28:48;22.70;1.00
7894;DHT22;51343;51.396;6.656;2023-05-14T15:31:15;22.60;1.00
7894;DHT22;51343;51.396;6.656;2023-05-14T15:33:41;22.50;1.00
7894;DHT22;51343;51.396;6.656;2023-05-14T15:36:09;22.50;1.00
7894;DHT22;51343;51.396;6.656;2023-05-14T15:38:36;22.30;1.00
7894;DHT22;51343;51.396;6.656;2023-05-14T15:41:03;22.30;1.00
7894;DHT22;51343;51.396;6.656;2023-05-14T15:43:29;22.20;1.00
7894;DHT22;51343;51.396;6.656;2023-05-14T15:45:56;22.20;1.00
7894;DHT22;51343;51.396;6.656;2023-05-14T15:48:22;22.10;1.00
7894;DHT22;51343;51.396;6.656;2023-05-14T15:50:49;22.00;1.00
7894;DHT22;51343;51.396;6.656;2023-05-14T15:53:17;21.90;1.00
7894;DHT22;51343;51.396;6.656;2023-05-14T15:55:44;21.80;1.00
7894;DHT22;51343;51.396;6.656;2023-05-14T16:01:02;21.70;1.00